Terminal Aerodrome Forecast
Issued by NWS Memphis, TN

Home | Current Version | Previous Version | Text Only | Print | Product List | Glossary On
Versions: 1 2 3 4 5 6 7 8 9 10 11 12 13 14 15 16 17 18 19 20 21 22
000
FTUS44 KMEG 020500
TAFJBR
TAF
KJBR 020529Z 0206/0306 17007KT P6SM FEW015 BKN250
      TEMPO 0213/0215 BKN015
     FM021600 22010KT P6SM VCSH BKN040 BKN150
     FM021900 20010KT P6SM SHRA VCTS BKN040CB
      TEMPO 0220/0223 VRB10G20KT 4SM TSRA BKN035CB
     FM030100 VRB03KT 6SM BR VCSH SCT040 BKN150=

USA.gov is the U.S. government's official web portal to all federal, state and local government web resources and services.